sensor_id;sensor_type;location;lat;lon;timestamp;P1;durP1;ratioP1;P2;durP2;ratioP2
3355;SDS011;1691;52.486;13.374;2023-07-02T00:00:06;1.80;;;1.70;;
3355;SDS011;1691;52.486;13.374;2023-07-02T00:02:35;1.47;;;1.40;;
3355;SDS011;1691;52.486;13.374;2023-07-02T00:05:03;1.90;;;1.80;;
3355;SDS011;1691;52.486;13.374;2023-07-02T00:07:31;1.80;;;1.70;;
3355;SDS011;1691;52.486;13.374;2023-07-02T00:09:59;1.40;;;1.40;;
3355;SDS011;1691;52.486;13.374;2023-07-02T00:12:26;3.40;;;1.47;;
3355;SDS011;1691;52.486;13.374;2023-07-02T00:14:53;2.37;;;1.50;;
3355;SDS011;1691;52.486;13.374;2023-07-02T00:17:20;2.13;;;1.83;;
3355;SDS011;1691;52.486;13.374;2023-07-02T00:19:47;2.10;;;2.00;;
3355;SDS011;1691;52.486;13.374;2023-07-02T00:22:18;2.20;;;2.10;;
3355;SDS011;1691;52.486;13.374;2023-07-02T00:24:46;1.97;;;1.50;;
3355;SDS011;1691;52.486;13.374;2023-07-02T00:27:14;5.40;;;1.80;;
3355;SDS011;1691;52.486;13.374;2023-07-02T00:29:41;2.20;;;2.10;;
3355;SDS011;1691;52.486;13.374;2023-07-02T00:32:08;1.50;;;1.40;;
3355;SDS011;1691;52.486;13.374;2023-07-02T00:34:35;1.63;;;1.53;;
3355;SDS011;1691;52.486;13.374;2023-07-02T00:37:02;10.10;;;2.00;;
3355;SDS011;1691;52.486;13.374;2023-07-02T00:39:29;2.20;;;2.10;;
3355;SDS011;1691;52.486;13.374;2023-07-02T00:42:02;2.00;;;1.90;;
3355;SDS011;1691;52.486;13.374;2023-07-02T00:44:31;2.30;;;2.20;;
3355;SDS011;1691;52.486;13.374;2023-07-02T00:46:57;2.37;;;2.27;;
3355;SDS011;1691;52.486;13.374;2023-07-02T00:49:25;2.20;;;2.10;;
3355;SDS011;1691;52.486;13.374;2023-07-02T00:51:52;2.43;;;2.33;;
3355;SDS011;1691;52.486;13.374;2023-07-02T00:54:19;2.20;;;2.10;;
3355;SDS011;1691;52.486;13.374;2023-07-02T00:56:46;2.67;;;2.57;;
3355;SDS011;1691;52.486;13.374;2023-07-02T00:59:13;2.60;;;2.40;;
3355;SDS011;1691;52.486;13.374;2023-07-02T01:01:40;2.70;;;2.60;;
3355;SDS011;1691;52.486;13.374;2023-07-02T01:04:07;3.47;;;2.93;;
3355;SDS011;1691;52.486;13.374;2023-07-02T01:06:37;4.60;;;2.90;;
3355;SDS011;1691;52.486;13.374;2023-07-02T01:09:08;14.33;;;3.50;;
3355;SDS011;1691;52.486;13.374;2023-07-02T01:11:37;3.20;;;3.10;;
3355;SDS011;1691;52.486;13.374;2023-07-02T01:14:19;3.20;;;3.10;;
3355;SDS011;1691;52.486;13.374;2023-07-02T01:16:52;3.10;;;2.90;;
3355;SDS011;1691;52.486;13.374;2023-07-02T01:19:22;3.70;;;3.50;;
3355;SDS011;1691;52.486;13.374;2023-07-02T01:22:17;3.23;;;2.93;;
3355;SDS011;1691;52.486;13.374;2023-07-02T01:24:46;3.40;;;3.20;;
3355;SDS011;1691;52.486;13.374;2023-07-02T01:27:15;4.00;;;3.80;;
3355;SDS011;1691;52.486;13.374;2023-07-02T01:29:42;4.13;;;3.77;;
3355;SDS011;1691;52.486;13.374;2023-07-02T03:07:52;6.10;;;3.70;;
3355;SDS011;1691;52.486;13.374;2023-07-02T04:57:17;2.30;;;2.20;;
3355;SDS011;1691;52.486;13.374;2023-07-02T06:20:21;7.60;;;1.50;;
3355;SDS011;1691;52.486;13.374;2023-07-02T06:52:57;2.80;;;2.07;;
3355;SDS011;1691;52.486;13.374;2023-07-02T08:34:49;4.30;;;3.30;;
3355;SDS011;1691;52.486;13.374;2023-07-02T12:04:59;13.93;;;7.13;;
3355;SDS011;1691;52.486;13.374;2023-07-02T18:20:49;8.87;;;5.03;;
3355;SDS011;1691;52.486;13.374;2023-07-02T18:58:41;13.20;;;6.20;;
3355;SDS011;1691;52.486;13.374;2023-07-02T19:25:21;8.67;;;5.60;;
3355;SDS011;1691;52.486;13.374;2023-07-02T19:29:30;10.20;;;6.07;;
3355;SDS011;1691;52.486;13.374;2023-07-02T20:06:30;16.10;;;10.47;;
3355;SDS011;1691;52.486;13.374;2023-07-02T20:43:40;7.93;;;5.60;;
3355;SDS011;1691;52.486;13.374;2023-07-02T20:47:20;10.97;;;7.00;;
3355;SDS011;1691;52.486;13.374;2023-07-02T20:59:43;17.70;;;6.10;;
3355;SDS011;1691;52.486;13.374;2023-07-02T22:22:42;8.43;;;5.50;;
